sensor_id;sensor_type;location;lat;lon;timestamp;pressure;altitude;pressure_sealevel;temperature;humidity
62055;BME280;48653;51.742;-1.256;2023-08-12T00:01:50;100859.62;;;18.58;43.76
62055;BME280;48653;51.742;-1.256;2023-08-12T00:04:15;100858.39;;;18.56;43.92
62055;BME280;48653;51.742;-1.256;2023-08-12T00:06:41;100859.03;;;18.44;43.49
62055;BME280;48653;51.742;-1.256;2023-08-12T00:09:06;100857.52;;;18.52;44.07
62055;BME280;48653;51.742;-1.256;2023-08-12T00:11:31;100856.66;;;18.60;43.92
62055;BME280;48653;51.742;-1.256;2023-08-12T00:13:56;100859.99;;;18.68;44.10
62055;BME280;48653;51.742;-1.256;2023-08-12T00:16:21;100859.25;;;18.95;43.84
62055;BME280;48653;51.742;-1.256;2023-08-12T00:18:46;100856.18;;;18.18;44.66
62055;BME280;48653;51.742;-1.256;2023-08-12T00:21:11;100855.11;;;18.36;45.15
62055;BME280;48653;51.742;-1.256;2023-08-12T00:23:38;100854.30;;;18.10;45.20
62055;BME280;48653;51.742;-1.256;2023-08-12T00:26:01;100854.56;;;18.48;44.79
62055;BME280;48653;51.742;-1.256;2023-08-12T00:28:26;100854.69;;;18.64;44.32
62055;BME280;48653;51.742;-1.256;2023-08-12T00:30:51;100854.39;;;18.32;44.15
62055;BME280;48653;51.742;-1.256;2023-08-12T00:33:16;100854.46;;;18.86;44.43
62055;BME280;48653;51.742;-1.256;2023-08-12T00:35:41;100853.59;;;18.51;44.34
62055;BME280;48653;51.742;-1.256;2023-08-12T00:38:06;100851.35;;;18.41;43.93
62055;BME280;48653;51.742;-1.256;2023-08-12T00:40:31;100848.09;;;18.36;44.10
62055;BME280;48653;51.742;-1.256;2023-08-12T00:42:56;100844.85;;;18.71;43.72
62055;BME280;48653;51.742;-1.256;2023-08-12T00:45:21;100846.24;;;18.21;44.15
62055;BME280;48653;51.742;-1.256;2023-08-12T00:47:46;100846.88;;;17.66;44.94
62055;BME280;48653;51.742;-1.256;2023-08-12T00:50:13;100842.65;;;18.04;44.29
62055;BME280;48653;51.742;-1.256;2023-08-12T00:52:36;100839.69;;;17.77;44.24
62055;BME280;48653;51.742;-1.256;2023-08-12T00:55:02;100835.14;;;17.90;45.15
62055;BME280;48653;51.742;-1.256;2023-08-12T00:57:27;100834.06;;;17.70;45.91
62055;BME280;48653;51.742;-1.256;2023-08-12T00:59:53;100831.43;;;17.93;45.52
62055;BME280;48653;51.742;-1.256;2023-08-12T01:02:17;100831.02;;;18.03;45.64
62055;BME280;48653;51.742;-1.256;2023-08-12T01:04:42;100831.67;;;17.67;46.43
62055;BME280;48653;51.742;-1.256;2023-08-12T01:07:07;100831.66;;;17.23;47.75
62055;BME280;48653;51.742;-1.256;2023-08-12T01:09:32;100827.66;;;17.79;46.44
62055;BME280;48653;51.742;-1.256;2023-08-12T01:12:05;100827.16;;;17.56;46.98
62055;BME280;48653;51.742;-1.256;2023-08-12T01:14:24;100827.69;;;17.40;46.66
62055;BME280;48653;51.742;-1.256;2023-08-12T01:16:51;100825.95;;;17.80;46.36
62055;BME280;48653;51.742;-1.256;2023-08-12T01:19:21;100827.49;;;17.45;47.48
62055;BME280;48653;51.742;-1.256;2023-08-12T01:21:41;100823.87;;;17.34;47.91
62055;BME280;48653;51.742;-1.256;2023-08-12T01:24:03;100827.34;;;16.97;49.19
62055;BME280;48653;51.742;-1.256;2023-08-12T01:26:28;100827.03;;;17.03;48.17
62055;BME280;48653;51.742;-1.256;2023-08-12T01:28:53;100829.74;;;16.96;49.33
62055;BME280;48653;51.742;-1.256;2023-08-12T01:31:32;100828.80;;;17.12;49.08
62055;BME280;48653;51.742;-1.256;2023-08-12T01:33:49;100830.62;;;17.15;49.80
62055;BME280;48653;51.742;-1.256;2023-08-12T01:36:12;100826.45;;;17.09;48.69
62055;BME280;48653;51.742;-1.256;2023-08-12T01:38:35;100827.08;;;17.15;48.18
62055;BME280;48653;51.742;-1.256;2023-08-12T01:41:00;100827.92;;;17.37;48.62
62055;BME280;48653;51.742;-1.256;2023-08-12T01:43:25;100827.58;;;17.11;48.64
62055;BME280;48653;51.742;-1.256;2023-08-12T01:45:50;100823.43;;;17.62;47.65
62055;BME280;48653;51.742;-1.256;2023-08-12T01:48:14;100825.14;;;17.14;48.37
62055;BME280;48653;51.742;-1.256;2023-08-12T01:50:40;100823.92;;;17.53;48.49
62055;BME280;48653;51.742;-1.256;2023-08-12T01:53:05;100823.27;;;17.24;48.07
62055;BME280;48653;51.742;-1.256;2023-08-12T01:55:30;100822.11;;;17.11;48.69
62055;BME280;48653;51.742;-1.256;2023-08-12T01:57:55;100816.98;;;17.32;48.37
62055;BME280;48653;51.742;-1.256;2023-08-12T02:00:21;100815.14;;;17.05;48.37
62055;BME280;48653;51.742;-1.256;2023-08-12T02:02:45;100816.78;;;16.85;48.30
62055;BME280;48653;51.742;-1.256;2023-08-12T02:05:10;100812.28;;;16.93;48.82
62055;BME280;48653;51.742;-1.256;2023-08-12T02:07:35;100812.63;;;16.67;49.87
62055;BME280;48653;51.742;-1.256;2023-08-12T02:10:00;100815.59;;;16.73;49.10
62055;BME280;48653;51.742;-1.256;2023-08-12T02:12:25;100811.87;;;17.09;49.36
62055;BME280;48653;51.742;-1.256;2023-08-12T02:14:51;100808.00;;;16.79;48.81
62055;BME280;48653;51.742;-1.256;2023-08-12T02:17:16;100806.92;;;17.17;48.59
62055;BME280;48653;51.742;-1.256;2023-08-12T02:19:41;100804.61;;;16.80;48.50
62055;BME280;48653;51.742;-1.256;2023-08-12T02:22:06;100802.78;;;17.17;49.23
62055;BME280;48653;51.742;-1.256;2023-08-12T02:24:31;100800.70;;;16.72;48.99
62055;BME280;48653;51.742;-1.256;2023-08-12T02:26:56;100800.68;;;17.42;48.73
62055;BME280;48653;51.742;-1.256;2023-08-12T02:29:21;100797.43;;;16.63;50.17
62055;BME280;48653;51.742;-1.256;2023-08-12T02:31:46;100792.82;;;16.61;49.39
62055;BME280;48653;51.742;-1.256;2023-08-12T02:34:12;100791.12;;;16.49;50.37
62055;BME280;48653;51.742;-1.256;2023-08-12T02:36:36;100785.09;;;16.35;51.06
62055;BME280;48653;51.742;-1.256;2023-08-12T02:39:02;100785.56;;;16.42;49.71
62055;BME280;48653;51.742;-1.256;2023-08-12T02:41:27;100783.79;;;16.67;49.88
62055;BME280;48653;51.742;-1.256;2023-08-12T02:43:52;100784.10;;;16.86;50.26
62055;BME280;48653;51.742;-1.256;2023-08-12T02:46:17;100785.68;;;16.81;49.32
62055;BME280;48653;51.742;-1.256;2023-08-12T02:48:42;100785.60;;;16.56;49.11
62055;BME280;48653;51.742;-1.256;2023-08-12T02:51:07;100779.65;;;16.98;48.90
62055;BME280;48653;51.742;-1.256;2023-08-12T02:53:32;100778.39;;;16.88;48.29
62055;BME280;48653;51.742;-1.256;2023-08-12T02:55:57;100777.29;;;16.92;49.05
62055;BME280;48653;51.742;-1.256;2023-08-12T02:58:22;100777.83;;;16.66;48.91
62055;BME280;48653;51.742;-1.256;2023-08-12T03:00:47;100780.85;;;16.89;48.92
62055;BME280;48653;51.742;-1.256;2023-08-12T03:03:12;100776.93;;;17.06;48.28
62055;BME280;48653;51.742;-1.256;2023-08-12T03:05:37;100771.91;;;17.22;48.19
62055;BME280;48653;51.742;-1.256;2023-08-12T03:08:03;100770.69;;;16.96;48.27
62055;BME280;48653;51.742;-1.256;2023-08-12T03:10:28;100773.16;;;16.89;48.51
62055;BME280;48653;51.742;-1.256;2023-08-12T03:12:53;100768.50;;;16.64;48.83
62055;BME280;48653;51.742;-1.256;2023-08-12T03:15:18;100763.14;;;16.60;49.26
62055;BME280;48653;51.742;-1.256;2023-08-12T03:17:43;100759.33;;;16.84;48.78
62055;BME280;48653;51.742;-1.256;2023-08-12T03:20:09;100757.50;;;17.00;48.58
62055;BME280;48653;51.742;-1.256;2023-08-12T03:22:34;100760.89;;;16.83;49.79
62055;BME280;48653;51.742;-1.256;2023-08-12T03:24:58;100758.66;;;16.73;49.65
62055;BME280;48653;51.742;-1.256;2023-08-12T03:27:24;100760.09;;;16.97;50.10
62055;BME280;48653;51.742;-1.256;2023-08-12T03:29:49;100759.97;;;16.55;51.28
62055;BME280;48653;51.742;-1.256;2023-08-12T03:32:14;100758.16;;;16.62;49.68
62055;BME280;48653;51.742;-1.256;2023-08-12T03:34:40;100758.89;;;16.71;49.75
62055;BME280;48653;51.742;-1.256;2023-08-12T03:37:05;100757.64;;;16.47;49.56
62055;BME280;48653;51.742;-1.256;2023-08-12T03:39:30;100761.60;;;16.87;49.69
62055;BME280;48653;51.742;-1.256;2023-08-12T03:41:56;100756.54;;;16.49;50.79
62055;BME280;48653;51.742;-1.256;2023-08-12T03:44:20;100751.13;;;16.76;50.35
62055;BME280;48653;51.742;-1.256;2023-08-12T03:46:45;100744.44;;;16.55;51.12
62055;BME280;48653;51.742;-1.256;2023-08-12T03:49:10;100742.67;;;16.40;50.58
62055;BME280;48653;51.742;-1.256;2023-08-12T03:51:36;100743.61;;;16.49;50.21
62055;BME280;48653;51.742;-1.256;2023-08-12T03:54:01;100738.78;;;16.52;50.81
62055;BME280;48653;51.742;-1.256;2023-08-12T03:56:26;100736.07;;;16.68;50.58
62055;BME280;48653;51.742;-1.256;2023-08-12T03:58:52;100732.46;;;16.45;51.14
62055;BME280;48653;51.742;-1.256;2023-08-12T04:01:17;100732.21;;;16.63;51.62
62055;BME280;48653;51.742;-1.256;2023-08-12T04:03:42;100725.90;;;16.23;50.62
62055;BME280;48653;51.742;-1.256;2023-08-12T04:06:07;100722.05;;;16.23;51.21
62055;BME280;48653;51.742;-1.256;2023-08-12T04:08:33;100716.53;;;16.66;50.04
62055;BME280;48653;51.742;-1.256;2023-08-12T04:11:01;100720.49;;;16.43;50.07
62055;BME280;48653;51.742;-1.256;2023-08-12T04:13:24;100722.13;;;17.03;49.27
62055;BME280;48653;51.742;-1.256;2023-08-12T04:15:51;100717.05;;;16.84;48.89
62055;BME280;48653;51.742;-1.256;2023-08-12T04:18:15;100711.72;;;16.96;49.42
62055;BME280;48653;51.742;-1.256;2023-08-12T04:20:40;100707.44;;;16.88;49.45
62055;BME280;48653;51.742;-1.256;2023-08-12T04:23:05;100704.77;;;16.77;49.72
62055;BME280;48653;51.742;-1.256;2023-08-12T04:25:30;100702.43;;;16.84;48.40
62055;BME280;48653;51.742;-1.256;2023-08-12T04:27:55;100704.52;;;16.68;49.52
62055;BME280;48653;51.742;-1.256;2023-08-12T04:30:21;100708.13;;;16.50;50.37
62055;BME280;48653;51.742;-1.256;2023-08-12T04:32:46;100713.41;;;16.70;50.67
62055;BME280;48653;51.742;-1.256;2023-08-12T04:35:11;100713.43;;;16.61;49.58
62055;BME280;48653;51.742;-1.256;2023-08-12T04:37:36;100715.60;;;16.68;49.98
62055;BME280;48653;51.742;-1.256;2023-08-12T04:40:02;100718.70;;;16.66;49.97
62055;BME280;48653;51.742;-1.256;2023-08-12T04:42:27;100716.44;;;16.79;50.19
62055;BME280;48653;51.742;-1.256;2023-08-12T04:44:52;100713.61;;;16.69;50.01
62055;BME280;48653;51.742;-1.256;2023-08-12T04:47:17;100711.57;;;16.78;50.25
62055;BME280;48653;51.742;-1.256;2023-08-12T04:49:42;100705.81;;;16.93;49.94
62055;BME280;48653;51.742;-1.256;2023-08-12T04:52:08;100698.16;;;16.94;50.05
62055;BME280;48653;51.742;-1.256;2023-08-12T04:54:33;100695.45;;;16.90;49.71
62055;BME280;48653;51.742;-1.256;2023-08-12T04:56:59;100691.61;;;17.03;49.99
62055;BME280;48653;51.742;-1.256;2023-08-12T04:59:23;100688.62;;;17.19;50.05
62055;BME280;48653;51.742;-1.256;2023-08-12T05:01:48;100684.17;;;17.00;49.69
62055;BME280;48653;51.742;-1.256;2023-08-12T05:04:14;100686.63;;;17.14;48.95
62055;BME280;48653;51.742;-1.256;2023-08-12T05:06:39;100685.96;;;17.15;48.80
62055;BME280;48653;51.742;-1.256;2023-08-12T05:09:04;100684.57;;;17.21;48.30
62055;BME280;48653;51.742;-1.256;2023-08-12T05:11:29;100684.73;;;16.99;50.14
62055;BME280;48653;51.742;-1.256;2023-08-12T05:13:54;100686.11;;;16.82;49.39
62055;BME280;48653;51.742;-1.256;2023-08-12T05:16:19;100687.59;;;17.17;49.40
62055;BME280;48653;51.742;-1.256;2023-08-12T05:18:45;100686.03;;;16.64;51.11
62055;BME280;48653;51.742;-1.256;2023-08-12T05:21:11;100684.45;;;17.20;50.16
62055;BME280;48653;51.742;-1.256;2023-08-12T05:23:35;100685.57;;;17.19;50.28
62055;BME280;48653;51.742;-1.256;2023-08-12T05:26:00;100683.24;;;17.12;51.39
62055;BME280;48653;51.742;-1.256;2023-08-12T05:28:26;100680.18;;;16.86;51.81
62055;BME280;48653;51.742;-1.256;2023-08-12T05:30:51;100682.06;;;17.06;51.26
62055;BME280;48653;51.742;-1.256;2023-08-12T05:33:17;100677.11;;;17.33;50.96
62055;BME280;48653;51.742;-1.256;2023-08-12T05:35:42;100676.98;;;16.83;52.31
62055;BME280;48653;51.742;-1.256;2023-08-12T05:38:07;100678.38;;;17.54;51.70
62055;BME280;48653;51.742;-1.256;2023-08-12T05:40:33;100679.96;;;16.75;52.42
62055;BME280;48653;51.742;-1.256;2023-08-12T05:42:58;100678.32;;;16.87;52.24
62055;BME280;48653;51.742;-1.256;2023-08-12T05:45:23;100680.75;;;16.67;53.53
62055;BME280;48653;51.742;-1.256;2023-08-12T05:47:49;100681.71;;;16.53;54.27
62055;BME280;48653;51.742;-1.256;2023-08-12T05:50:13;100679.92;;;16.92;53.13
62055;BME280;48653;51.742;-1.256;2023-08-12T05:52:38;100681.32;;;17.02;52.93
62055;BME280;48653;51.742;-1.256;2023-08-12T05:55:05;100682.78;;;16.95;52.68
62055;BME280;48653;51.742;-1.256;2023-08-12T05:57:31;100683.55;;;16.88;52.86
62055;BME280;48653;51.742;-1.256;2023-08-12T05:59:55;100680.15;;;17.12;53.03
62055;BME280;48653;51.742;-1.256;2023-08-12T06:02:21;100679.60;;;17.08;52.20
62055;BME280;48653;51.742;-1.256;2023-08-12T06:04:46;100680.39;;;17.35;52.13
62055;BME280;48653;51.742;-1.256;2023-08-12T06:07:12;100682.40;;;16.26;55.13
62055;BME280;48653;51.742;-1.256;2023-08-12T06:09:37;100684.88;;;16.92;53.13
62055;BME280;48653;51.742;-1.256;2023-08-12T06:12:03;100682.34;;;17.03;53.17
62055;BME280;48653;51.742;-1.256;2023-08-12T06:14:27;100683.00;;;16.60;54.57
62055;BME280;48653;51.742;-1.256;2023-08-12T06:16:53;100683.42;;;16.61;54.00
62055;BME280;48653;51.742;-1.256;2023-08-12T06:19:18;100684.45;;;17.34;53.63
62055;BME280;48653;51.742;-1.256;2023-08-12T06:21:44;100688.58;;;16.86;53.67
62055;BME280;48653;51.742;-1.256;2023-08-12T06:24:09;100688.68;;;17.04;53.56
62055;BME280;48653;51.742;-1.256;2023-08-12T06:26:34;100685.87;;;16.98;53.63
62055;BME280;48653;51.742;-1.256;2023-08-12T06:29:00;100681.73;;;17.60;52.77
62055;BME280;48653;51.742;-1.256;2023-08-12T06:31:25;100681.94;;;17.05;53.47
62055;BME280;48653;51.742;-1.256;2023-08-12T06:33:50;100681.50;;;17.56;52.88
62055;BME280;48653;51.742;-1.256;2023-08-12T06:36:16;100675.73;;;17.67;53.75
62055;BME280;48653;51.742;-1.256;2023-08-12T06:38:40;100675.87;;;17.16;53.63
62055;BME280;48653;51.742;-1.256;2023-08-12T06:41:06;100680.35;;;16.92;54.93
62055;BME280;48653;51.742;-1.256;2023-08-12T06:43:31;100674.24;;;17.52;54.04
62055;BME280;48653;51.742;-1.256;2023-08-12T06:45:57;100676.80;;;17.27;53.71
62055;BME280;48653;51.742;-1.256;2023-08-12T06:48:23;100678.90;;;17.27;54.00
62055;BME280;48653;51.742;-1.256;2023-08-12T06:50:53;100675.04;;;17.60;53.51
62055;BME280;48653;51.742;-1.256;2023-08-12T06:53:14;100676.30;;;17.97;52.24
62055;BME280;48653;51.742;-1.256;2023-08-12T06:55:44;100676.94;;;18.42;51.75
62055;BME280;48653;51.742;-1.256;2023-08-12T06:58:04;100680.16;;;18.44;50.58
62055;BME280;48653;51.742;-1.256;2023-08-12T07:00:29;100679.64;;;18.39;51.06
62055;BME280;48653;51.742;-1.256;2023-08-12T07:02:54;100682.54;;;18.13;51.23
62055;BME280;48653;51.742;-1.256;2023-08-12T07:05:19;100682.23;;;18.46;51.08
62055;BME280;48653;51.742;-1.256;2023-08-12T07:07:44;100684.29;;;18.31;51.68
62055;BME280;48653;51.742;-1.256;2023-08-12T07:10:10;100681.87;;;18.11;52.23
62055;BME280;48653;51.742;-1.256;2023-08-12T07:12:34;100678.64;;;17.65;52.94
62055;BME280;48653;51.742;-1.256;2023-08-12T07:15:00;100681.83;;;18.21;52.23
62055;BME280;48653;51.742;-1.256;2023-08-12T07:17:26;100676.32;;;18.43;52.44
62055;BME280;48653;51.742;-1.256;2023-08-12T07:19:51;100682.50;;;17.87;52.30
62055;BME280;48653;51.742;-1.256;2023-08-12T07:22:16;100678.58;;;18.18;52.04
62055;BME280;48653;51.742;-1.256;2023-08-12T07:24:41;100682.42;;;17.72;52.53
62055;BME280;48653;51.742;-1.256;2023-08-12T07:27:06;100686.59;;;17.96;51.27
62055;BME280;48653;51.742;-1.256;2023-08-12T07:29:31;100678.35;;;18.43;50.89
62055;BME280;48653;51.742;-1.256;2023-08-12T07:31:58;100683.12;;;18.60;50.71
62055;BME280;48653;51.742;-1.256;2023-08-12T07:36:47;100674.84;;;18.58;49.63
62055;BME280;48653;51.742;-1.256;2023-08-12T07:39:13;100675.54;;;19.07;49.57
62055;BME280;48653;51.742;-1.256;2023-08-12T07:41:38;100674.21;;;18.18;50.36
62055;BME280;48653;51.742;-1.256;2023-08-12T07:44:05;100678.65;;;19.05;49.14
62055;BME280;48653;51.742;-1.256;2023-08-12T07:46:30;100679.09;;;18.20;51.10
62055;BME280;48653;51.742;-1.256;2023-08-12T07:48:55;100676.26;;;18.34;50.94
62055;BME280;48653;51.742;-1.256;2023-08-12T07:51:20;100671.84;;;17.73;51.92
62055;BME280;48653;51.742;-1.256;2023-08-12T07:53:45;100671.61;;;18.66;50.63
62055;BME280;48653;51.742;-1.256;2023-08-12T07:56:11;100675.65;;;18.00;51.78
62055;BME280;48653;51.742;-1.256;2023-08-12T07:58:36;100672.11;;;18.03;52.00
62055;BME280;48653;51.742;-1.256;2023-08-12T08:01:02;100671.12;;;18.23;51.13
62055;BME280;48653;51.742;-1.256;2023-08-12T08:03:27;100672.27;;;18.65;50.58
62055;BME280;48653;51.742;-1.256;2023-08-12T08:05:52;100675.92;;;19.27;48.50
62055;BME280;48653;51.742;-1.256;2023-08-12T08:10:42;100676.09;;;18.64;50.87
62055;BME280;48653;51.742;-1.256;2023-08-12T08:13:08;100676.29;;;19.02;49.83
62055;BME280;48653;51.742;-1.256;2023-08-12T08:17:59;100672.37;;;18.73;50.52
62055;BME280;48653;51.742;-1.256;2023-08-12T08:20:26;100669.65;;;18.91;49.49
62055;BME280;48653;51.742;-1.256;2023-08-12T08:22:50;100671.81;;;19.95;48.11
62055;BME280;48653;51.742;-1.256;2023-08-12T08:25:15;100671.97;;;19.02;48.06
62055;BME280;48653;51.742;-1.256;2023-08-12T08:27:41;100662.48;;;19.48;48.59
62055;BME280;48653;51.742;-1.256;2023-08-12T08:30:06;100656.41;;;19.32;48.05
62055;BME280;48653;51.742;-1.256;2023-08-12T08:32:30;100643.59;;;19.61;47.38
62055;BME280;48653;51.742;-1.256;2023-08-12T08:34:56;100648.64;;;19.70;47.09
62055;BME280;48653;51.742;-1.256;2023-08-12T08:37:21;100651.17;;;18.50;48.39
62055;BME280;48653;51.742;-1.256;2023-08-12T08:39:47;100651.51;;;19.10;47.70
62055;BME280;48653;51.742;-1.256;2023-08-12T08:42:12;100650.18;;;19.04;48.27
62055;BME280;48653;51.742;-1.256;2023-08-12T08:44:40;100645.62;;;18.82;48.62
62055;BME280;48653;51.742;-1.256;2023-08-12T08:47:04;100637.97;;;19.52;47.00
62055;BME280;48653;51.742;-1.256;2023-08-12T08:49:28;100642.06;;;19.29;47.33
62055;BME280;48653;51.742;-1.256;2023-08-12T08:51:53;100648.17;;;19.06;46.46
62055;BME280;48653;51.742;-1.256;2023-08-12T08:54:19;100646.81;;;20.36;44.96
62055;BME280;48653;51.742;-1.256;2023-08-12T08:56:44;100647.12;;;19.54;46.29
62055;BME280;48653;51.742;-1.256;2023-08-12T08:59:09;100653.16;;;19.06;46.34
62055;BME280;48653;51.742;-1.256;2023-08-12T09:01:35;100647.20;;;19.30;46.17
62055;BME280;48653;51.742;-1.256;2023-08-12T09:03:59;100656.52;;;18.74;47.98
62055;BME280;48653;51.742;-1.256;2023-08-12T09:06:25;100656.09;;;19.39;47.36
62055;BME280;48653;51.742;-1.256;2023-08-12T09:08:51;100649.42;;;19.19;46.86
62055;BME280;48653;51.742;-1.256;2023-08-12T09:11:17;100661.25;;;18.96;46.65
62055;BME280;48653;51.742;-1.256;2023-08-12T09:13:41;100662.09;;;18.30;48.03
62055;BME280;48653;51.742;-1.256;2023-08-12T09:16:06;100663.68;;;19.54;46.41
62055;BME280;48653;51.742;-1.256;2023-08-12T09:18:32;100658.94;;;19.93;46.03
62055;BME280;48653;51.742;-1.256;2023-08-12T09:20:57;100663.49;;;19.80;46.06
62055;BME280;48653;51.742;-1.256;2023-08-12T09:23:23;100662.72;;;19.62;46.36
62055;BME280;48653;51.742;-1.256;2023-08-12T09:25:48;100666.95;;;18.61;47.38
62055;BME280;48653;51.742;-1.256;2023-08-12T09:28:12;100661.33;;;19.29;47.61
62055;BME280;48653;51.742;-1.256;2023-08-12T09:30:38;100658.70;;;19.72;46.44
62055;BME280;48653;51.742;-1.256;2023-08-12T09:33:05;100653.31;;;19.84;46.15
62055;BME280;48653;51.742;-1.256;2023-08-12T09:35:33;100650.43;;;20.37;45.74
62055;BME280;48653;51.742;-1.256;2023-08-12T09:37:54;100656.60;;;20.50;45.17
62055;BME280;48653;51.742;-1.256;2023-08-12T09:40:19;100655.40;;;21.01;44.17
62055;BME280;48653;51.742;-1.256;2023-08-12T09:42:45;100654.49;;;20.33;45.20
62055;BME280;48653;51.742;-1.256;2023-08-12T09:45:09;100659.88;;;19.53;46.59
62055;BME280;48653;51.742;-1.256;2023-08-12T09:47:34;100659.27;;;19.47;46.25
62055;BME280;48653;51.742;-1.256;2023-08-12T09:50:00;100649.30;;;20.87;44.17
62055;BME280;48653;51.742;-1.256;2023-08-12T09:52:24;100647.20;;;20.88;44.47
62055;BME280;48653;51.742;-1.256;2023-08-12T09:54:50;100643.55;;;21.76;43.32
62055;BME280;48653;51.742;-1.256;2023-08-12T09:57:16;100645.60;;;21.73;42.51
62055;BME280;48653;51.742;-1.256;2023-08-12T09:59:41;100649.88;;;20.56;44.39
62055;BME280;48653;51.742;-1.256;2023-08-12T10:02:04;100647.20;;;20.74;44.18
62055;BME280;48653;51.742;-1.256;2023-08-12T10:04:33;100643.59;;;19.93;44.86
62055;BME280;48653;51.742;-1.256;2023-08-12T10:06:55;100640.07;;;20.55;45.00
62055;BME280;48653;51.742;-1.256;2023-08-12T10:09:19;100640.72;;;20.94;43.88
62055;BME280;48653;51.742;-1.256;2023-08-12T10:11:46;100650.87;;;20.57;44.85
62055;BME280;48653;51.742;-1.256;2023-08-12T10:14:10;100646.99;;;20.66;44.51
62055;BME280;48653;51.742;-1.256;2023-08-12T10:16:34;100647.55;;;20.80;44.48
62055;BME280;48653;51.742;-1.256;2023-08-12T10:19:00;100652.68;;;19.89;47.04
62055;BME280;48653;51.742;-1.256;2023-08-12T10:21:25;100662.36;;;19.13;52.15
62055;BME280;48653;51.742;-1.256;2023-08-12T10:23:50;100686.51;;;19.87;51.55
62055;BME280;48653;51.742;-1.256;2023-08-12T10:26:15;100690.79;;;18.55;56.24
62055;BME280;48653;51.742;-1.256;2023-08-12T10:28:40;100681.56;;;19.03;55.58
62055;BME280;48653;51.742;-1.256;2023-08-12T10:31:05;100677.67;;;18.86;56.00
62055;BME280;48653;51.742;-1.256;2023-08-12T10:33:30;100682.39;;;18.87;56.14
62055;BME280;48653;51.742;-1.256;2023-08-12T10:35:55;100674.45;;;18.76;57.03
62055;BME280;48653;51.742;-1.256;2023-08-12T10:38:21;100680.23;;;18.87;56.84
62055;BME280;48653;51.742;-1.256;2023-08-12T10:40:46;100675.25;;;18.89;56.59
62055;BME280;48653;51.742;-1.256;2023-08-12T10:43:11;100673.55;;;17.94;59.62
62055;BME280;48653;51.742;-1.256;2023-08-12T10:45:43;100674.49;;;18.34;59.17
62055;BME280;48653;51.742;-1.256;2023-08-12T10:48:11;100670.72;;;18.70;58.84
62055;BME280;48653;51.742;-1.256;2023-08-12T10:50:26;100670.19;;;18.97;57.92
62055;BME280;48653;51.742;-1.256;2023-08-12T10:52:52;100672.13;;;18.65;59.57
62055;BME280;48653;51.742;-1.256;2023-08-12T10:55:18;100664.15;;;19.14;57.56
62055;BME280;48653;51.742;-1.256;2023-08-12T10:57:42;100658.28;;;19.47;56.95
62055;BME280;48653;51.742;-1.256;2023-08-12T11:00:10;100654.46;;;19.61;56.79
62055;BME280;48653;51.742;-1.256;2023-08-12T11:02:33;100639.84;;;20.61;54.74
62055;BME280;48653;51.742;-1.256;2023-08-12T11:04:57;100631.02;;;20.71;52.52
62055;BME280;48653;51.742;-1.256;2023-08-12T11:07:22;100619.28;;;21.86;53.24
62055;BME280;48653;51.742;-1.256;2023-08-12T11:09:51;100618.04;;;22.42;50.47
62055;BME280;48653;51.742;-1.256;2023-08-12T11:14:47;100614.78;;;23.62;49.05
62055;BME280;48653;51.742;-1.256;2023-08-12T11:17:11;100621.92;;;23.04;47.11
62055;BME280;48653;51.742;-1.256;2023-08-12T11:19:27;100618.64;;;22.79;49.09
62055;BME280;48653;51.742;-1.256;2023-08-12T11:21:52;100620.65;;;23.17;46.91
62055;BME280;48653;51.742;-1.256;2023-08-12T11:24:17;100623.99;;;22.57;48.66
62055;BME280;48653;51.742;-1.256;2023-08-12T11:26:42;100620.29;;;21.74;48.47
62055;BME280;48653;51.742;-1.256;2023-08-12T11:29:10;100616.25;;;22.39;47.84
62055;BME280;48653;51.742;-1.256;2023-08-12T11:31:32;100613.30;;;22.06;46.67
62055;BME280;48653;51.742;-1.256;2023-08-12T11:33:57;100615.23;;;23.00;47.01
62055;BME280;48653;51.742;-1.256;2023-08-12T11:36:22;100617.52;;;21.98;47.43
62055;BME280;48653;51.742;-1.256;2023-08-12T11:38:47;100618.15;;;22.26;47.88
62055;BME280;48653;51.742;-1.256;2023-08-12T11:41:12;100614.26;;;21.33;47.69
62055;BME280;48653;51.742;-1.256;2023-08-12T11:43:37;100619.96;;;21.94;47.89
62055;BME280;48653;51.742;-1.256;2023-08-12T11:46:02;100614.69;;;21.50;47.72
62055;BME280;48653;51.742;-1.256;2023-08-12T11:48:28;100613.84;;;21.98;47.80
62055;BME280;48653;51.742;-1.256;2023-08-12T11:50:52;100615.34;;;21.14;48.90
62055;BME280;48653;51.742;-1.256;2023-08-12T11:53:17;100609.79;;;21.88;48.12
62055;BME280;48653;51.742;-1.256;2023-08-12T11:55:42;100609.76;;;21.62;47.97
62055;BME280;48653;51.742;-1.256;2023-08-12T11:58:07;100602.81;;;21.88;47.54
62055;BME280;48653;51.742;-1.256;2023-08-12T12:00:33;100604.05;;;21.79;49.70
62055;BME280;48653;51.742;-1.256;2023-08-12T12:02:57;100600.57;;;22.48;47.55
62055;BME280;48653;51.742;-1.256;2023-08-12T12:05:25;100601.46;;;22.95;47.81
62055;BME280;48653;51.742;-1.256;2023-08-12T12:07:49;100600.12;;;22.88;46.09
62055;BME280;48653;51.742;-1.256;2023-08-12T12:10:16;100603.86;;;23.11;45.01
62055;BME280;48653;51.742;-1.256;2023-08-12T12:12:37;100607.72;;;24.74;44.61
62055;BME280;48653;51.742;-1.256;2023-08-12T12:15:03;100600.47;;;23.47;44.64
62055;BME280;48653;51.742;-1.256;2023-08-12T12:17:28;100600.19;;;23.69;43.95
62055;BME280;48653;51.742;-1.256;2023-08-12T12:19:55;100598.84;;;23.73;44.46
62055;BME280;48653;51.742;-1.256;2023-08-12T12:22:19;100599.78;;;24.31;44.78
62055;BME280;48653;51.742;-1.256;2023-08-12T12:24:46;100599.17;;;23.66;44.19
62055;BME280;48653;51.742;-1.256;2023-08-12T12:27:11;100589.25;;;23.91;42.54
62055;BME280;48653;51.742;-1.256;2023-08-12T12:29:36;100591.64;;;23.37;43.41
62055;BME280;48653;51.742;-1.256;2023-08-12T12:32:01;100589.11;;;22.90;44.05
62055;BME280;48653;51.742;-1.256;2023-08-12T12:34:26;100591.10;;;22.42;44.50
62055;BME280;48653;51.742;-1.256;2023-08-12T12:36:51;100589.68;;;22.51;43.41
62055;BME280;48653;51.742;-1.256;2023-08-12T12:39:17;100592.05;;;21.69;45.06